sensor_id;sensor_type;location;lat;lon;timestamp;pressure;altitude;pressure_sealevel;temperature;humidity
83140;BME280;73027;54.208;19.128;2024-02-21T00:01:22;101881.19;;;6.89;77.56
83140;BME280;73027;54.208;19.128;2024-02-21T00:03:47;101863.25;;;6.80;76.73
83140;BME280;73027;54.208;19.128;2024-02-21T00:06:13;101871.78;;;6.88;76.70
83140;BME280;73027;54.208;19.128;2024-02-21T00:08:38;101860.69;;;6.94;77.06
83140;BME280;73027;54.208;19.128;2024-02-21T00:11:04;101860.69;;;6.95;76.78
83140;BME280;73027;54.208;19.128;2024-02-21T00:13:29;101862.38;;;6.92;75.83
83140;BME280;73027;54.208;19.128;2024-02-21T00:15:55;101853.88;;;6.90;75.84
83140;BME280;73027;54.208;19.128;2024-02-21T00:18:21;101847.03;;;6.95;75.62
83140;BME280;73027;54.208;19.128;2024-02-21T00:20:47;101848.72;;;7.03;75.94
83140;BME280;73027;54.208;19.128;2024-02-21T00:23:12;101850.44;;;7.10;75.59
83140;BME280;73027;54.208;19.128;2024-02-21T00:25:38;101846.16;;;7.14;75.58
83140;BME280;73027;54.208;19.128;2024-02-21T00:28:04;101833.34;;;7.14;74.86
83140;BME280;73027;54.208;19.128;2024-02-21T00:30:31;101839.31;;;7.13;74.14
83140;BME280;73027;54.208;19.128;2024-02-21T00:32:56;101835.03;;;7.13;74.85
83140;BME280;73027;54.208;19.128;2024-02-21T00:35:21;101830.75;;;7.18;75.26
83140;BME280;73027;54.208;19.128;2024-02-21T00:37:47;101837.56;;;7.24;74.19
83140;BME280;73027;54.208;19.128;2024-02-21T00:40:12;101832.44;;;7.27;74.06
83140;BME280;73027;54.208;19.128;2024-02-21T00:42:37;101830.72;;;7.26;73.45
83140;BME280;73027;54.208;19.128;2024-02-21T00:45:03;101819.63;;;7.23;74.07
83140;BME280;73027;54.208;19.128;2024-02-21T00:47:29;101819.63;;;7.24;73.55
83140;BME280;73027;54.208;19.128;2024-02-21T00:49:54;101811.09;;;7.25;74.13
83140;BME280;73027;54.208;19.128;2024-02-21T00:52:20;101813.66;;;7.25;73.93
83140;BME280;73027;54.208;19.128;2024-02-21T00:54:45;101809.44;;;7.10;73.68
83140;BME280;73027;54.208;19.128;2024-02-21T00:57:11;101811.16;;;7.02;73.99
83140;BME280;73027;54.208;19.128;2024-02-21T00:59:37;101809.47;;;6.92;73.86
83140;BME280;73027;54.208;19.128;2024-02-21T01:02:02;101801.78;;;6.94;73.94
83140;BME280;73027;54.208;19.128;2024-02-21T01:04:28;101794.09;;;7.01;73.86
83140;BME280;73027;54.208;19.128;2024-02-21T01:06:53;101812.88;;;7.06;73.80
83140;BME280;73027;54.208;19.128;2024-02-21T01:09:18;101820.56;;;6.85;74.04
83140;BME280;73027;54.208;19.128;2024-02-21T01:11:44;101818.88;;;6.69;74.73
83140;BME280;73027;54.208;19.128;2024-02-21T01:14:09;101809.53;;;6.59;75.40
83140;BME280;73027;54.208;19.128;2024-02-21T01:16:36;101818.91;;;6.49;76.12
83140;BME280;73027;54.208;19.128;2024-02-21T01:19:01;101808.69;;;6.43;77.14
83140;BME280;73027;54.208;19.128;2024-02-21T01:21:26;101808.69;;;6.45;76.96
83140;BME280;73027;54.208;19.128;2024-02-21T01:23:52;101803.56;;;6.43;76.94
83140;BME280;73027;54.208;19.128;2024-02-21T01:26:17;101796.72;;;6.38;77.50
83140;BME280;73027;54.208;19.128;2024-02-21T01:28:43;101789.06;;;6.44;78.30
83140;BME280;73027;54.208;19.128;2024-02-21T01:31:08;101772.00;;;6.47;78.72
83140;BME280;73027;54.208;19.128;2024-02-21T01:33:34;101780.53;;;6.55;78.11
83140;BME280;73027;54.208;19.128;2024-02-21T01:36:04;101785.63;;;6.61;77.96
83140;BME280;73027;54.208;19.128;2024-02-21T01:38:32;101784.78;;;6.53;77.62
83140;BME280;73027;54.208;19.128;2024-02-21T01:40:57;101778.81;;;6.47;78.23
83140;BME280;73027;54.208;19.128;2024-02-21T01:43:22;101766.03;;;6.32;78.06
83140;BME280;73027;54.208;19.128;2024-02-21T01:45:57;101784.78;;;6.34;78.88
83140;BME280;73027;54.208;19.128;2024-02-21T01:48:23;101789.06;;;6.33;78.90
83140;BME280;73027;54.208;19.128;2024-02-21T01:50:49;101789.06;;;6.35;78.70
83140;BME280;73027;54.208;19.128;2024-02-21T01:53:36;101775.41;;;6.33;79.31
83140;BME280;73027;54.208;19.128;2024-02-21T01:56:03;101772.84;;;6.30;79.29
83140;BME280;73027;54.208;19.128;2024-02-21T01:58:33;101779.69;;;6.37;79.22
83140;BME280;73027;54.208;19.128;2024-02-21T02:01:02;101766.03;;;6.22;79.10
83140;BME280;73027;54.208;19.128;2024-02-21T02:03:27;101782.22;;;6.23;79.83
83140;BME280;73027;54.208;19.128;2024-02-21T02:05:53;101779.69;;;6.21;79.60
83140;BME280;73027;54.208;19.128;2024-02-21T02:08:19;101773.72;;;6.13;80.27
83140;BME280;73027;54.208;19.128;2024-02-21T02:10:45;101769.44;;;6.12;80.43
83140;BME280;73027;54.208;19.128;2024-02-21T02:13:12;101768.59;;;6.15;79.81
83140;BME280;73027;54.208;19.128;2024-02-21T02:15:48;101738.75;;;6.09;80.68
83140;BME280;73027;54.208;19.128;2024-02-21T02:18:15;101762.63;;;6.28;80.97
83140;BME280;73027;54.208;19.128;2024-02-21T02:20:41;101753.25;;;6.24;79.95
83140;BME280;73027;54.208;19.128;2024-02-21T02:23:10;101758.34;;;6.26;80.36
83140;BME280;73027;54.208;19.128;2024-02-21T02:25:36;101757.50;;;6.30;80.72
83140;BME280;73027;54.208;19.128;2024-02-21T02:28:06;101746.41;;;6.32;80.44
83140;BME280;73027;54.208;19.128;2024-02-21T02:30:33;101747.25;;;6.34;80.23
83140;BME280;73027;54.208;19.128;2024-02-21T02:33:00;101751.53;;;6.37;80.57
83140;BME280;73027;54.208;19.128;2024-02-21T02:35:25;101745.56;;;6.39;80.11
83140;BME280;73027;54.208;19.128;2024-02-21T02:37:50;101746.41;;;6.38;79.85
83140;BME280;73027;54.208;19.128;2024-02-21T02:40:17;101749.81;;;6.36;80.65
83140;BME280;73027;54.208;19.128;2024-02-21T02:42:42;101745.56;;;6.33;80.75
83140;BME280;73027;54.208;19.128;2024-02-21T02:45:17;101737.88;;;6.35;80.64
83140;BME280;73027;54.208;19.128;2024-02-21T02:47:46;101737.88;;;6.39;81.26
83140;BME280;73027;54.208;19.128;2024-02-21T02:50:12;101728.50;;;6.34;80.88
83140;BME280;73027;54.208;19.128;2024-02-21T02:52:37;101696.94;;;6.26;80.85
83140;BME280;73027;54.208;19.128;2024-02-21T02:55:04;101719.94;;;6.38;80.67
83140;BME280;73027;54.208;19.128;2024-02-21T02:57:29;101717.41;;;6.41;80.79
83140;BME280;73027;54.208;19.128;2024-02-21T02:59:56;101696.97;;;6.33;80.63
83140;BME280;73027;54.208;19.128;2024-02-21T03:02:21;101705.47;;;6.37;80.81
83140;BME280;73027;54.208;19.128;2024-02-21T03:04:46;101704.63;;;6.39;80.29
83140;BME280;73027;54.208;19.128;2024-02-21T03:07:13;101699.50;;;6.41;80.72
83140;BME280;73027;54.208;19.128;2024-02-21T03:09:39;101695.19;;;6.53;80.47
83140;BME280;73027;54.208;19.128;2024-02-21T03:12:05;101683.22;;;6.57;80.04
83140;BME280;73027;54.208;19.128;2024-02-21T03:14:31;101686.63;;;6.66;80.43
83140;BME280;73027;54.208;19.128;2024-02-21T03:17:00;101690.91;;;6.67;80.43
83140;BME280;73027;54.208;19.128;2024-02-21T03:19:26;101697.75;;;6.58;79.93
83140;BME280;73027;54.208;19.128;2024-02-21T03:21:52;101693.53;;;6.45;80.38
83140;BME280;73027;54.208;19.128;2024-02-21T03:24:21;101694.34;;;6.45;80.00
83140;BME280;73027;54.208;19.128;2024-02-21T03:26:47;101694.34;;;6.50;80.60
83140;BME280;73027;54.208;19.128;2024-02-21T03:29:14;101699.47;;;6.42;80.45
83140;BME280;73027;54.208;19.128;2024-02-21T03:31:40;101690.13;;;6.37;80.25
83140;BME280;73027;54.208;19.128;2024-02-21T03:34:06;101687.53;;;6.34;81.00
83140;BME280;73027;54.208;19.128;2024-02-21T03:36:31;101689.28;;;6.32;81.38
83140;BME280;73027;54.208;19.128;2024-02-21T03:38:56;101695.22;;;6.40;81.38
83140;BME280;73027;54.208;19.128;2024-02-21T03:41:22;101687.53;;;6.43;81.02
83140;BME280;73027;54.208;19.128;2024-02-21T03:43:47;101678.16;;;6.39;80.57
83140;BME280;73027;54.208;19.128;2024-02-21T03:46:13;101684.97;;;6.47;81.06
83140;BME280;73027;54.208;19.128;2024-02-21T03:48:38;101679.84;;;6.55;81.64
83140;BME280;73027;54.208;19.128;2024-02-21T03:51:04;101680.72;;;6.52;81.07
83140;BME280;73027;54.208;19.128;2024-02-21T03:53:29;101682.41;;;6.56;80.51
83140;BME280;73027;54.208;19.128;2024-02-21T03:55:55;101657.72;;;6.40;80.03
83140;BME280;73027;54.208;19.128;2024-02-21T03:58:21;101679.00;;;6.47;80.76
83140;BME280;73027;54.208;19.128;2024-02-21T04:00:47;101669.63;;;6.44;80.43
83140;BME280;73027;54.208;19.128;2024-02-21T04:03:12;101671.34;;;6.44;80.75
83140;BME280;73027;54.208;19.128;2024-02-21T04:05:38;101642.38;;;6.28;81.31
83140;BME280;73027;54.208;19.128;2024-02-21T04:08:04;101670.47;;;6.42;81.03
83140;BME280;73027;54.208;19.128;2024-02-21T04:10:30;101667.94;;;6.45;81.13
83140;BME280;73027;54.208;19.128;2024-02-21T04:12:55;101663.66;;;6.48;82.26
83140;BME280;73027;54.208;19.128;2024-02-21T04:15:21;101638.94;;;6.31;81.58
83140;BME280;73027;54.208;19.128;2024-02-21T04:17:46;101657.69;;;6.37;81.74
83140;BME280;73027;54.208;19.128;2024-02-21T04:20:15;101640.66;;;6.30;81.76
83140;BME280;73027;54.208;19.128;2024-02-21T04:22:44;101657.69;;;6.34;81.88
83140;BME280;73027;54.208;19.128;2024-02-21T04:25:10;101656.03;;;6.33;81.69
83140;BME280;73027;54.208;19.128;2024-02-21T04:27:36;101645.75;;;6.39;81.79
83140;BME280;73027;54.208;19.128;2024-02-21T04:30:02;101647.47;;;6.40;81.77
83140;BME280;73027;54.208;19.128;2024-02-21T04:32:28;101635.53;;;6.39;82.41
83140;BME280;73027;54.208;19.128;2024-02-21T04:34:53;101645.75;;;6.38;82.14
83140;BME280;73027;54.208;19.128;2024-02-21T04:37:18;101637.22;;;6.34;81.93
83140;BME280;73027;54.208;19.128;2024-02-21T04:39:45;101636.41;;;6.32;82.60
83140;BME280;73027;54.208;19.128;2024-02-21T04:42:12;101638.09;;;6.32;82.87
83140;BME280;73027;54.208;19.128;2024-02-21T04:44:37;101625.31;;;6.22;82.16
83140;BME280;73027;54.208;19.128;2024-02-21T04:47:03;101611.72;;;6.17;82.33
83140;BME280;73027;54.208;19.128;2024-02-21T04:49:29;101610.00;;;6.21;83.29
83140;BME280;73027;54.208;19.128;2024-02-21T04:51:55;101615.94;;;6.32;82.97
83140;BME280;73027;54.208;19.128;2024-02-21T04:54:20;101595.47;;;6.18;82.25
83140;BME280;73027;54.208;19.128;2024-02-21T04:56:45;101610.81;;;6.32;83.54
83140;BME280;73027;54.208;19.128;2024-02-21T04:59:11;101607.41;;;6.33;82.59
83140;BME280;73027;54.208;19.128;2024-02-21T05:01:36;101606.56;;;6.33;82.85
83140;BME280;73027;54.208;19.128;2024-02-21T05:04:02;101598.88;;;6.28;83.38
83140;BME280;73027;54.208;19.128;2024-02-21T05:06:28;101609.09;;;6.36;82.47
83140;BME280;73027;54.208;19.128;2024-02-21T05:08:53;101592.03;;;6.32;83.13
83140;BME280;73027;54.208;19.128;2024-02-21T05:11:23;101610.81;;;6.31;82.95
83140;BME280;73027;54.208;19.128;2024-02-21T05:13:49;101604.00;;;6.25;83.04
83140;BME280;73027;54.208;19.128;2024-02-21T05:16:15;101589.53;;;6.21;83.13
83140;BME280;73027;54.208;19.128;2024-02-21T05:18:40;101590.38;;;6.20;83.57
83140;BME280;73027;54.208;19.128;2024-02-21T05:21:06;101592.91;;;6.23;84.10
83140;BME280;73027;54.208;19.128;2024-02-21T05:23:31;101586.94;;;6.29;84.15
83140;BME280;73027;54.208;19.128;2024-02-21T05:25:57;101586.09;;;6.28;84.11
83140;BME280;73027;54.208;19.128;2024-02-21T05:28:22;101578.41;;;6.33;83.56
83140;BME280;73027;54.208;19.128;2024-02-21T05:30:47;101580.13;;;6.26;83.98
83140;BME280;73027;54.208;19.128;2024-02-21T05:33:13;101565.63;;;6.22;84.09
83140;BME280;73027;54.208;19.128;2024-02-21T05:35:46;101577.56;;;6.18;84.16
83140;BME280;73027;54.208;19.128;2024-02-21T05:38:11;101563.06;;;6.22;83.75
83140;BME280;73027;54.208;19.128;2024-02-21T05:40:37;101566.44;;;6.35;84.48
83140;BME280;73027;54.208;19.128;2024-02-21T05:43:02;101566.41;;;6.47;84.21
83140;BME280;73027;54.208;19.128;2024-02-21T05:45:28;101558.69;;;6.50;84.11
83140;BME280;73027;54.208;19.128;2024-02-21T05:47:53;101562.09;;;6.53;83.63
83140;BME280;73027;54.208;19.128;2024-02-21T05:50:18;101559.53;;;6.55;83.41
83140;BME280;73027;54.208;19.128;2024-02-21T05:52:44;101560.38;;;6.60;84.04
83140;BME280;73027;54.208;19.128;2024-02-21T05:55:09;101558.69;;;6.54;83.88
83140;BME280;73027;54.208;19.128;2024-02-21T05:57:35;101553.56;;;6.57;83.56
83140;BME280;73027;54.208;19.128;2024-02-21T06:00:04;101549.28;;;6.58;83.47
83140;BME280;73027;54.208;19.128;2024-02-21T06:02:30;101545.03;;;6.54;83.98
83140;BME280;73027;54.208;19.128;2024-02-21T06:04:55;101539.91;;;6.57;83.96
83140;BME280;73027;54.208;19.128;2024-02-21T06:07:21;101535.63;;;6.63;83.31
83140;BME280;73027;54.208;19.128;2024-02-21T06:09:46;101541.53;;;6.68;83.49
83140;BME280;73027;54.208;19.128;2024-02-21T06:12:11;101530.50;;;6.63;83.66
83140;BME280;73027;54.208;19.128;2024-02-21T06:14:37;101525.34;;;6.69;83.93
83140;BME280;73027;54.208;19.128;2024-02-21T06:17:02;101542.44;;;6.67;83.17
83140;BME280;73027;54.208;19.128;2024-02-21T06:19:28;101527.91;;;6.68;83.78
83140;BME280;73027;54.208;19.128;2024-02-21T06:21:53;101511.72;;;6.67;83.90
83140;BME280;73027;54.208;19.128;2024-02-21T06:24:19;101526.19;;;6.72;83.31
83140;BME280;73027;54.208;19.128;2024-02-21T06:26:44;101517.56;;;6.80;83.64
83140;BME280;73027;54.208;19.128;2024-02-21T06:29:11;101529.50;;;6.84;83.73
83140;BME280;73027;54.208;19.128;2024-02-21T06:31:36;101508.13;;;6.90;83.39
83140;BME280;73027;54.208;19.128;2024-02-21T06:34:01;101520.03;;;6.97;82.86
83140;BME280;73027;54.208;19.128;2024-02-21T06:36:27;101519.13;;;7.05;82.62
83140;BME280;73027;54.208;19.128;2024-02-21T06:38:52;101519.09;;;7.08;82.54
83140;BME280;73027;54.208;19.128;2024-02-21T06:41:18;101508.78;;;7.14;82.54
83140;BME280;73027;54.208;19.128;2024-02-21T06:43:45;101502.81;;;7.15;81.77
83140;BME280;73027;54.208;19.128;2024-02-21T06:46:11;101496.81;;;7.19;82.40
83140;BME280;73027;54.208;19.128;2024-02-21T06:48:37;101500.19;;;7.23;82.11
83140;BME280;73027;54.208;19.128;2024-02-21T06:51:02;101494.22;;;7.23;81.47
83140;BME280;73027;54.208;19.128;2024-02-21T06:53:28;101487.38;;;7.25;81.79
83140;BME280;73027;54.208;19.128;2024-02-21T06:55:54;101507.84;;;7.26;81.84
83140;BME280;73027;54.208;19.128;2024-02-21T06:58:19;101494.16;;;7.32;81.21
83140;BME280;73027;54.208;19.128;2024-02-21T07:00:44;101497.50;;;7.38;81.40
83140;BME280;73027;54.208;19.128;2024-02-21T07:03:10;101496.63;;;7.39;81.22
83140;BME280;73027;54.208;19.128;2024-02-21T07:05:35;101505.19;;;7.40;80.70
83140;BME280;73027;54.208;19.128;2024-02-21T07:08:01;101496.63;;;7.39;81.32
83140;BME280;73027;54.208;19.128;2024-02-21T07:10:27;101504.31;;;7.41;80.93
83140;BME280;73027;54.208;19.128;2024-02-21T07:12:55;101488.88;;;7.47;80.91
83140;BME280;73027;54.208;19.128;2024-02-21T07:15:21;101493.13;;;7.51;80.97
83140;BME280;73027;54.208;19.128;2024-02-21T07:17:46;101493.97;;;7.50;80.92
83140;BME280;73027;54.208;19.128;2024-02-21T07:20:11;101490.59;;;7.48;80.62
83140;BME280;73027;54.208;19.128;2024-02-21T07:22:37;101499.94;;;7.50;80.42
83140;BME280;73027;54.208;19.128;2024-02-21T07:25:02;101485.41;;;7.51;80.84
83140;BME280;73027;54.208;19.128;2024-02-21T07:27:28;101478.59;;;7.50;80.81
83140;BME280;73027;54.208;19.128;2024-02-21T07:29:56;101489.81;;;7.40;80.88
83140;BME280;73027;54.208;19.128;2024-02-21T07:32:21;101488.97;;;7.36;80.97
83140;BME280;73027;54.208;19.128;2024-02-21T07:34:47;101487.34;;;7.29;81.02
83140;BME280;73027;54.208;19.128;2024-02-21T07:37:12;101482.22;;;7.26;81.19
83140;BME280;73027;54.208;19.128;2024-02-21T07:39:38;101483.97;;;7.24;81.21
83140;BME280;73027;54.208;19.128;2024-02-21T07:42:03;101471.16;;;7.23;81.80
83140;BME280;73027;54.208;19.128;2024-02-21T07:44:29;101470.34;;;7.21;81.56
83140;BME280;73027;54.208;19.128;2024-02-21T07:46:56;101473.72;;;7.26;82.25
83140;BME280;73027;54.208;19.128;2024-02-21T07:49:22;101458.22;;;7.36;81.76
83140;BME280;73027;54.208;19.128;2024-02-21T07:51:47;101465.03;;;7.40;81.32
83140;BME280;73027;54.208;19.128;2024-02-21T07:54:12;101459.94;;;7.36;81.37
83140;BME280;73027;54.208;19.128;2024-02-21T07:56:38;101443.81;;;7.25;81.49
83140;BME280;73027;54.208;19.128;2024-02-21T07:59:03;101446.28;;;7.35;81.22
83140;BME280;73027;54.208;19.128;2024-02-21T08:01:29;101462.50;;;7.36;80.84
83140;BME280;73027;54.208;19.128;2024-02-21T08:03:54;101459.22;;;7.22;81.07
83140;BME280;73027;54.208;19.128;2024-02-21T08:06:19;101457.59;;;7.11;81.47
83140;BME280;73027;54.208;19.128;2024-02-21T08:08:45;101446.53;;;7.09;82.54
83140;BME280;73027;54.208;19.128;2024-02-21T08:11:10;101443.88;;;7.15;82.18
83140;BME280;73027;54.208;19.128;2024-02-21T08:13:36;101451.53;;;7.20;81.84
83140;BME280;73027;54.208;19.128;2024-02-21T08:16:01;101433.56;;;7.23;82.22
83140;BME280;73027;54.208;19.128;2024-02-21T08:18:28;101442.06;;;7.28;82.43
83140;BME280;73027;54.208;19.128;2024-02-21T08:20:53;101437.72;;;7.36;81.48
83140;BME280;73027;54.208;19.128;2024-02-21T08:23:25;101431.78;;;7.31;81.66
83140;BME280;73027;54.208;19.128;2024-02-21T08:25:50;101432.63;;;7.33;81.88
83140;BME280;73027;54.208;19.128;2024-02-21T08:28:15;101424.91;;;7.36;82.11
83140;BME280;73027;54.208;19.128;2024-02-21T08:30:42;101416.38;;;7.36;81.53
83140;BME280;73027;54.208;19.128;2024-02-21T08:33:12;101412.91;;;7.40;81.75
83140;BME280;73027;54.208;19.128;2024-02-21T08:35:38;101411.16;;;7.45;81.48
83140;BME280;73027;54.208;19.128;2024-02-21T08:38:03;101411.13;;;7.48;81.83
83140;BME280;73027;54.208;19.128;2024-02-21T08:40:28;101414.50;;;7.53;81.79
83140;BME280;73027;54.208;19.128;2024-02-21T08:42:54;101404.25;;;7.51;81.12
83140;BME280;73027;54.208;19.128;2024-02-21T08:45:19;101400.88;;;7.48;81.56
83140;BME280;73027;54.208;19.128;2024-02-21T08:47:44;101402.53;;;7.52;81.48
83140;BME280;73027;54.208;19.128;2024-02-21T08:50:11;101392.25;;;7.56;81.32
83140;BME280;73027;54.208;19.128;2024-02-21T08:52:37;101387.16;;;7.50;81.53
83140;BME280;73027;54.208;19.128;2024-02-21T08:55:02;101390.53;;;7.55;81.46
83140;BME280;73027;54.208;19.128;2024-02-21T08:57:28;101385.31;;;7.61;81.22
83140;BME280;73027;54.208;19.128;2024-02-21T08:59:53;101389.59;;;7.64;81.51
83140;BME280;73027;54.208;19.128;2024-02-21T09:02:19;101387.88;;;7.64;81.32
83140;BME280;73027;54.208;19.128;2024-02-21T09:04:44;101374.22;;;7.61;81.63
83140;BME280;73027;54.208;19.128;2024-02-21T09:07:13;101386.22;;;7.59;81.33
83140;BME280;73027;54.208;19.128;2024-02-21T09:09:38;101377.66;;;7.60;81.48
83140;BME280;73027;54.208;19.128;2024-02-21T09:12:08;101376.78;;;7.61;82.05
83140;BME280;73027;54.208;19.128;2024-02-21T09:14:36;101382.75;;;7.61;81.71
83140;BME280;73027;54.208;19.128;2024-02-21T09:17:04;101377.69;;;7.57;81.34
83140;BME280;73027;54.208;19.128;2024-02-21T09:19:30;101381.19;;;7.51;81.76
83140;BME280;73027;54.208;19.128;2024-02-21T09:21:55;101371.69;;;7.58;81.89
83140;BME280;73027;54.208;19.128;2024-02-21T09:24:21;101378.53;;;7.57;81.65
83140;BME280;73027;54.208;19.128;2024-02-21T09:26:46;101375.97;;;7.60;81.93
83140;BME280;73027;54.208;19.128;2024-02-21T09:29:12;101379.28;;;7.65;81.92
83140;BME280;73027;54.208;19.128;2024-02-21T09:31:37;101377.63;;;7.64;81.99
83140;BME280;73027;54.208;19.128;2024-02-21T09:34:04;101366.47;;;7.65;81.37
83140;BME280;73027;54.208;19.128;2024-02-21T09:36:30;101362.25;;;7.61;81.61
83140;BME280;73027;54.208;19.128;2024-02-21T09:38:55;101375.03;;;7.66;81.44
83140;BME280;73027;54.208;19.128;2024-02-21T09:41:27;101363.94;;;7.64;81.61
83140;BME280;73027;54.208;19.128;2024-02-21T09:43:53;101352.03;;;7.60;81.41
83140;BME280;73027;54.208;19.128;2024-02-21T09:46:28;101354.56;;;7.61;81.73
83140;BME280;73027;54.208;19.128;2024-02-21T09:51:38;101355.44;;;7.59;81.87
83140;BME280;73027;54.208;19.128;2024-02-21T09:54:07;101352.84;;;7.63;81.56
83140;BME280;73027;54.208;19.128;2024-02-21T09:56:32;101347.63;;;7.71;81.73
83140;BME280;73027;54.208;19.128;2024-02-21T09:58:58;101348.41;;;7.76;81.38
83140;BME280;73027;54.208;19.128;2024-02-21T10:01:23;101350.03;;;7.80;81.45
83140;BME280;73027;54.208;19.128;2024-02-21T10:03:49;101337.25;;;7.77;80.73
83140;BME280;73027;54.208;19.128;2024-02-21T10:06:14;101347.41;;;7.86;80.68
83140;BME280;73027;54.208;19.128;2024-02-21T10:08:40;101331.13;;;7.90;80.66
83140;BME280;73027;54.208;19.128;2024-02-21T10:11:05;101322.56;;;7.88;81.19
83140;BME280;73027;54.208;19.128;2024-02-21T10:13:31;101325.16;;;7.88;80.50
83140;BME280;73027;54.208;19.128;2024-02-21T10:16:05;101339.66;;;7.91;81.00
83140;BME280;73027;54.208;19.128;2024-02-21T10:18:31;101330.25;;;7.91;80.68
83140;BME280;73027;54.208;19.128;2024-02-21T10:21:01;101331.03;;;7.96;81.23
83140;BME280;73027;54.208;19.128;2024-02-21T10:23:27;101319.16;;;7.91;81.30
83140;BME280;73027;54.208;19.128;2024-02-21T10:25:52;101312.31;;;7.90;81.39
83140;BME280;73027;54.208;19.128;2024-02-21T10:28:17;101315.69;;;7.93;81.19
83140;BME280;73027;54.208;19.128;2024-02-21T10:30:52;101305.47;;;7.90;81.30
83140;BME280;73027;54.208;19.128;2024-02-21T10:33:17;101305.38;;;7.96;81.31
83140;BME280;73027;54.208;19.128;2024-02-21T10:35:46;101293.25;;;8.06;81.53
83140;BME280;73027;54.208;19.128;2024-02-21T10:38:12;101290.66;;;8.09;81.42
83140;BME280;73027;54.208;19.128;2024-02-21T10:40:38;101285.44;;;8.13;81.44
83140;BME280;73027;54.208;19.128;2024-02-21T10:43:05;101282.09;;;8.08;81.51
83140;BME280;73027;54.208;19.128;2024-02-21T10:45:36;101270.00;;;8.15;81.26
83140;BME280;73027;54.208;19.128;2024-02-21T10:48:12;101282.78;;;8.20;81.28
83140;BME280;73027;54.208;19.128;2024-02-21T10:53:20;101270.41;;;8.46;80.24
83140;BME280;73027;54.208;19.128;2024-02-21T10:55:59;101274.59;;;8.51;80.46
83140;BME280;73027;54.208;19.128;2024-02-21T10:58:28;101260.19;;;8.43;80.44
83140;BME280;73027;54.208;19.128;2024-02-21T11:00:55;101260.31;;;8.37;80.29
83140;BME280;73027;54.208;19.128;2024-02-21T11:03:21;101250.22;;;8.23;80.82
83140;BME280;73027;54.208;19.128;2024-02-21T11:05:47;101266.53;;;8.19;81.06
83140;BME280;73027;54.208;19.128;2024-02-21T11:08:12;101254.44;;;8.27;81.65
83140;BME280;73027;54.208;19.128;2024-02-21T11:10:39;101251.06;;;8.25;81.14
83140;BME280;73027;54.208;19.128;2024-02-21T11:13:07;101248.50;;;8.25;81.17
83140;BME280;73027;54.208;19.128;2024-02-21T11:15:33;101246.75;;;8.29;81.10
83140;BME280;73027;54.208;19.128;2024-02-21T11:17:58;101247.66;;;8.23;81.26
83140;BME280;73027;54.208;19.128;2024-02-21T11:20:37;101251.06;;;8.24;81.76
83140;BME280;73027;54.208;19.128;2024-02-21T11:23:09;101255.41;;;8.20;81.31
83140;BME280;73027;54.208;19.128;2024-02-21T11:25:36;101243.44;;;8.21;81.63
83140;BME280;73027;54.208;19.128;2024-02-21T11:28:04;101242.66;;;8.15;81.70
83140;BME280;73027;54.208;19.128;2024-02-21T11:30:36;101234.81;;;8.25;82.02
83140;BME280;73027;54.208;19.128;2024-02-21T11:33:02;101229.63;;;8.28;81.76
83140;BME280;73027;54.208;19.128;2024-02-21T11:35:33;101235.63;;;8.30;81.72
83140;BME280;73027;54.208;19.128;2024-02-21T11:38:14;101236.41;;;8.33;81.59
83140;BME280;73027;54.208;19.128;2024-02-21T11:40:46;101232.09;;;8.35;81.82
83140;BME280;73027;54.208;19.128;2024-02-21T11:43:11;101237.16;;;8.40;81.38
83140;BME280;73027;54.208;19.128;2024-02-21T11:45:37;101225.97;;;8.42;81.39
83140;BME280;73027;54.208;19.128;2024-02-21T11:48:05;101222.53;;;8.42;81.09
83140;BME280;73027;54.208;19.128;2024-02-21T11:50:31;101218.38;;;8.38;80.79
83140;BME280;73027;54.208;19.128;2024-02-21T11:52:57;101207.19;;;8.40;81.41
83140;BME280;73027;54.208;19.128;2024-02-21T11:55:23;101225.19;;;8.39;80.43
83140;BME280;73027;54.208;19.128;2024-02-21T11:57:49;101232.88;;;8.39;80.53
83140;BME280;73027;54.208;19.128;2024-02-21T12:00:18;101221.69;;;8.43;80.45
83140;BME280;73027;54.208;19.128;2024-02-21T12:02:47;101214.94;;;8.37;80.58
83140;BME280;73027;54.208;19.128;2024-02-21T12:05:13;101207.97;;;8.44;80.74
83140;BME280;73027;54.208;19.128;2024-02-21T12:07:39;101204.50;;;8.46;80.55
83140;BME280;73027;54.208;19.128;2024-02-21T12:10:14;101212.84;;;8.57;80.60
83140;BME280;73027;54.208;19.128;2024-02-21T12:12:40;101206.59;;;8.72;80.09
83140;BME280;73027;54.208;19.128;2024-02-21T12:15:07;101203.75;;;8.86;80.21
83140;BME280;73027;54.208;19.128;2024-02-21T12:17:36;101201.97;;;8.91;79.35
83140;BME280;73027;54.208;19.128;2024-02-21T12:20:02;101201.03;;;8.95;79.20
83140;BME280;73027;54.208;19.128;2024-02-21T12:22:30;101191.47;;;9.00;78.84
83140;BME280;73027;54.208;19.128;2024-02-21T12:24:58;101178.28;;;9.17;78.82
83140;BME280;73027;54.208;19.128;2024-02-21T12:27:23;101171.09;;;9.31;78.88
83140;BME280;73027;54.208;19.128;2024-02-21T12:29:50;101172.56;;;9.42;78.73
83140;BME280;73027;54.208;19.128;2024-02-21T12:32:15;101174.25;;;9.43;77.78
83140;BME280;73027;54.208;19.128;2024-02-21T12:34:40;101165.09;;;9.32;77.68
83140;BME280;73027;54.208;19.128;2024-02-21T12:37:06;101156.88;;;9.16;78.05
83140;BME280;73027;54.208;19.128;2024-02-21T12:39:33;101151.81;;;9.12;78.62
83140;BME280;73027;54.208;19.128;2024-02-21T12:41:58;101151.13;;;9.05;78.60
83140;BME280;73027;54.208;19.128;2024-02-21T12:44:24;101153.66;;;9.06;78.92
83140;BME280;73027;54.208;19.128;2024-02-21T12:46:49;101164.72;;;9.10;78.80
83140;BME280;73027;54.208;19.128;2024-02-21T12:49:17;101156.19;;;9.08;78.84
83140;BME280;73027;54.208;19.128;2024-02-21T12:51:43;101151.19;;;9.03;78.91